Time;durP1;ratioP1;P1;durP2;ratioP2;P2;SDS_P1;SDS_P2;PMS_P1;PMS_P2;Temp;Humidity;BMP_temperature;BMP_pressure;BME280_temperature;BME280_humidity;BME280_pressure;Samples;Min_cycle;Max_cycle;Signal;HPM_P1;HPM_P2
2021/08/10 00:00:15;;;;;;;24.95;12.55;;;13.80;99.90;;;;;;5091589;28;20020;-80
2021/08/10 00:02:40;;;;;;;25.75;13.48;;;13.80;99.90;;;;;;5092461;28;20028;-79
2021/08/10 00:05:07;;;;;;;22.73;14.20;;;13.80;99.90;;;;;;5092376;28;20476;-80
2021/08/10 00:07:33;;;;;;;22.33;13.82;;;13.80;99.90;;;;;;5091383;28;20081;-80
2021/08/10 00:09:59;;;;;;;25.25;14.25;;;13.80;99.90;;;;;;5092637;28;20434;-79
2021/08/10 00:12:25;;;;;;;20.15;13.95;;;13.90;99.90;;;;;;5092383;28;20028;-79
2021/08/10 00:14:50;;;;;;;27.25;15.13;;;13.90;99.90;;;;;;5092290;28;20031;-80
2021/08/10 00:17:16;;;;;;;25.25;13.70;;;13.80;99.90;;;;;;5092382;28;20062;-79
2021/08/10 00:19:41;;;;;;;17.98;14.10;;;13.80;99.90;;;;;;5092490;28;20028;-79
2021/08/10 00:22:07;;;;;;;23.08;14.80;;;13.80;99.90;;;;;;5092081;28;20039;-79
2021/08/10 00:24:33;;;;;;;23.42;15.52;;;13.90;99.90;;;;;;5089588;28;20028;-80
2021/08/10 00:27:02;;;;;;;24.77;15.40;;;13.80;99.90;;;;;;5091079;28;20016;-79
2021/08/10 00:29:29;;;;;;;24.73;15.30;;;13.90;99.90;;;;;;5091087;28;20026;-79
2021/08/10 00:31:54;;;;;;;26.42;15.48;;;13.90;99.90;;;;;;5090948;28;20114;-80
2021/08/10 00:34:20;;;;;;;39.13;15.20;;;13.90;99.90;;;;;;5091528;28;20138;-79
2021/08/10 00:36:45;;;;;;;28.85;15.93;;;13.90;99.90;;;;;;5090821;28;20111;-79
2021/08/10 00:39:11;;;;;;;25.25;15.73;;;13.90;99.90;;;;;;5090745;28;20472;-80
2021/08/10 00:41:37;;;;;;;25.48;15.65;;;13.90;99.90;;;;;;5092146;28;20055;-79
2021/08/10 00:44:03;;;;;;;24.70;16.48;;;13.90;99.90;;;;;;5091465;28;20020;-80
2021/08/10 00:46:28;;;;;;;27.27;15.32;;;13.90;99.90;;;;;;5090938;28;20460;-79
2021/08/10 00:48:54;;;;;;;23.25;16.48;;;14.00;99.90;;;;;;5090800;28;20115;-80
2021/08/10 00:51:20;;;;;;;32.65;15.73;;;13.80;99.90;;;;;;5090681;28;20430;-80
2021/08/10 00:53:46;;;;;;;26.08;16.02;;;13.70;99.90;;;;;;5090244;28;20064;-80
2021/08/10 00:56:11;;;;;;;23.35;17.25;;;13.80;99.90;;;;;;5090640;28;20047;-79
2021/08/10 00:58:38;;;;;;;24.98;16.35;;;13.80;99.90;;;;;;5090555;28;20047;-80
2021/08/10 01:01:04;;;;;;;25.77;17.13;;;13.80;99.90;;;;;;5091937;28;20099;-80
2021/08/10 01:03:29;;;;;;;28.15;16.00;;;13.90;99.90;;;;;;5090075;28;20062;-80
2021/08/10 01:05:55;;;;;;;26.02;16.15;;;13.90;99.90;;;;;;5091143;28;20032;-80
2021/08/10 01:08:28;;;;;;;36.78;17.73;;;13.90;99.90;;;;;;5091876;28;20369;-79
2021/08/10 01:11:36;;;;;;;29.13;16.83;;;13.90;99.90;;;;;;5091463;28;20028;-79
2021/08/10 01:14:24;;;;;;;35.40;18.58;;;13.90;99.90;;;;;;5048480;28;20086;-80
2021/08/10 01:17:03;;;;;;;26.52;16.13;;;14.00;99.90;;;;;;5068111;28;20081;-80
2021/08/10 01:19:41;;;;;;;29.60;15.90;;;13.90;99.90;;;;;;5070338;28;20020;-80
2021/08/10 01:22:08;;;;;;;27.33;17.05;;;14.00;99.90;;;;;;5071557;28;20065;-80
2021/08/10 01:25:05;;;;;;;29.73;18.02;;;14.00;99.90;;;;;;5074742;28;20055;-81
2021/08/10 01:27:50;;;;;;;29.58;16.48;;;14.00;99.90;;;;;;5091711;28;20028;-80
2021/08/10 01:30:22;;;;;;;95.15;21.35;;;14.00;99.90;;;;;;5091647;28;20066;-82
2021/08/10 01:32:50;;;;;;;45.72;18.73;;;14.00;99.90;;;;;;5090378;28;20028;-80
2021/08/10 01:35:17;;;;;;;42.92;18.52;;;14.00;99.90;;;;;;5091290;28;20035;-80
2021/08/10 01:37:53;;;;;;;30.50;19.08;;;14.00;99.90;;;;;;5095480;28;20027;-80
2021/08/10 01:40:19;;;;;;;26.88;19.27;;;14.00;99.90;;;;;;5094285;28;20503;-78
2021/08/10 01:42:45;;;;;;;25.75;17.48;;;13.90;99.90;;;;;;5095470;28;20103;-79
2021/08/10 01:45:11;;;;;;;30.40;19.45;;;13.90;99.90;;;;;;5094756;28;20462;-78
2021/08/10 01:47:38;;;;;;;34.72;19.10;;;14.00;99.90;;;;;;5094003;28;20119;-78
2021/08/10 01:50:06;;;;;;;46.08;20.63;;;14.10;99.90;;;;;;5095311;28;20056;-79
2021/08/10 01:52:32;;;;;;;41.90;17.80;;;14.10;99.90;;;;;;5094398;28;20042;-79
2021/08/10 01:54:58;;;;;;;24.23;16.80;;;14.20;99.90;;;;;;5093296;28;20036;-80
2021/08/10 01:57:25;;;;;;;25.25;17.67;;;14.20;99.90;;;;;;5093842;28;20123;-80
2021/08/10 01:59:54;;;;;;;28.45;17.98;;;14.10;99.90;;;;;;5093842;28;20031;-79
2021/08/10 02:02:20;;;;;;;37.80;17.58;;;14.10;99.90;;;;;;5093410;28;20601;-79
2021/08/10 02:04:49;;;;;;;33.38;18.98;;;14.20;99.90;;;;;;5094791;28;20059;-78
2021/08/10 02:07:16;;;;;;;24.50;16.85;;;14.10;99.90;;;;;;5093806;28;20127;-78
2021/08/10 02:09:43;;;;;;;28.17;17.42;;;14.20;99.90;;;;;;5093732;28;20057;-78
2021/08/10 02:12:09;;;;;;;40.15;20.10;;;14.20;99.90;;;;;;5094719;28;20024;-78
2021/08/10 02:14:36;;;;;;;38.92;14.85;;;14.30;99.90;;;;;;5093160;28;20426;-78
2021/08/10 02:17:05;;;;;;;26.27;13.98;;;14.40;99.90;;;;;;5091784;28;20028;-78
2021/08/10 02:19:33;;;;;;;33.60;15.82;;;14.20;99.90;;;;;;5093507;28;20111;-78
2021/08/10 02:22:08;;;;;;;35.83;18.38;;;14.10;99.90;;;;;;5093475;28;20020;-78
2021/08/10 02:25:04;;;;;;;35.53;15.70;;;14.10;99.90;;;;;;5073550;28;20024;-78
2021/08/10 02:27:47;;;;;;;22.77;12.50;;;14.10;99.90;;;;;;5074557;28;20025;-78
2021/08/10 02:30:16;;;;;;;25.00;10.77;;;14.10;99.90;;;;;;5073063;28;20476;-79
2021/08/10 02:32:44;;;;;;;24.23;10.02;;;14.00;99.90;;;;;;5075118;28;20259;-79
2021/08/10 02:35:12;;;;;;;17.33;7.22;;;14.00;99.90;;;;;;5092939;28;20503;-78
2021/08/10 02:37:39;;;;;;;22.85;7.47;;;14.00;99.90;;;;;;5094240;28;20024;-78
2021/08/10 02:40:08;;;;;;;26.02;7.32;;;14.00;99.90;;;;;;5093086;28;20024;-78
2021/08/10 02:42:35;;;;;;;26.55;7.45;;;13.90;99.90;;;;;;5094238;28;20489;-77
2021/08/10 02:45:01;;;;;;;15.95;6.03;;;14.00;99.90;;;;;;5093667;28;20028;-79
2021/08/10 02:47:28;;;;;;;26.60;6.03;;;14.00;99.90;;;;;;5093107;28;20042;-78
2021/08/10 02:49:54;;;;;;;15.60;5.05;;;14.00;99.90;;;;;;5094189;28;20034;-79
2021/08/10 02:52:19;;;;;;;17.27;5.90;;;14.10;99.90;;;;;;5094016;28;20036;-78
2021/08/10 02:54:46;;;;;;;18.08;5.15;;;14.00;99.90;;;;;;5092293;28;20507;-78
2021/08/10 02:57:18;;;;;;;22.95;5.32;;;14.00;99.90;;;;;;5092632;28;20554;-78
2021/08/10 02:59:56;;;;;;;22.17;6.53;;;14.00;99.90;;;;;;5094004;28;20382;-79
2021/08/10 03:02:25;;;;;;;20.30;6.60;;;14.00;99.90;;;;;;5093974;28;20023;-78
2021/08/10 03:04:56;;;;;;;20.95;5.75;;;14.00;99.90;;;;;;5091965;28;20085;-78
2021/08/10 03:07:25;;;;;;;14.95;5.38;;;14.00;99.90;;;;;;5094056;28;20434;-78
2021/08/10 03:09:55;;;;;;;14.43;5.38;;;14.00;99.90;;;;;;5093407;28;20511;-78
2021/08/10 03:12:22;;;;;;;27.02;5.15;;;14.00;99.90;;;;;;5093736;28;20466;-78
2021/08/10 03:14:50;;;;;;;17.05;4.47;;;14.00;99.90;;;;;;5093172;28;20016;-78
2021/08/10 03:17:17;;;;;;;19.33;4.97;;;14.00;99.90;;;;;;5092301;28;20024;-79
2021/08/10 03:19:45;;;;;;;18.92;3.78;;;14.00;99.90;;;;;;5093549;28;20054;-78
2021/08/10 03:22:11;;;;;;;22.65;4.72;;;14.00;99.90;;;;;;5093572;28;20024;-78
2021/08/10 03:24:38;;;;;;;22.65;4.47;;;13.90;99.90;;;;;;5092927;28;20107;-78
2021/08/10 03:27:05;;;;;;;9.95;3.72;;;13.90;99.90;;;;;;5093417;28;20020;-78
2021/08/10 03:29:33;;;;;;;12.68;4.55;;;13.90;99.90;;;;;;5092117;28;20016;-78
2021/08/10 03:32:00;;;;;;;19.10;5.45;;;13.90;99.90;;;;;;5093414;28;20107;-79
2021/08/10 03:34:26;;;;;;;17.27;4.97;;;14.00;99.90;;;;;;5091474;28;20499;-79
2021/08/10 03:36:53;;;;;;;14.80;4.55;;;13.80;99.90;;;;;;5093034;28;20476;-78
2021/08/10 03:39:20;;;;;;;16.38;6.22;;;13.80;99.90;;;;;;5093183;28;20036;-79
2021/08/10 03:41:46;;;;;;;22.85;6.60;;;13.80;99.90;;;;;;5093136;28;20027;-78
2021/08/10 03:44:14;;;;;;;18.42;6.60;;;13.80;99.90;;;;;;5091584;28;20061;-78
2021/08/10 03:46:41;;;;;;;16.70;7.72;;;13.80;99.90;;;;;;5092786;28;20504;-78
2021/08/10 03:49:07;;;;;;;19.75;7.45;;;13.80;99.90;;;;;;5092957;28;20028;-78
2021/08/10 03:51:35;;;;;;;33.72;9.05;;;13.70;99.90;;;;;;5091742;28;20024;-78
2021/08/10 03:54:01;;;;;;;32.50;10.90;;;13.70;99.90;;;;;;5091369;28;20024;-79
2021/08/10 03:56:27;;;;;;;37.28;11.27;;;13.70;99.90;;;;;;5092575;28;20448;-78
2021/08/10 03:58:56;;;;;;;22.58;10.50;;;13.70;99.90;;;;;;5092605;28;20411;-78
2021/08/10 04:01:24;;;;;;;24.85;11.48;;;13.70;99.90;;;;;;5091553;28;20027;-78
2021/08/10 04:03:51;;;;;;;33.85;15.00;;;13.70;99.90;;;;;;5091391;28;20016;-79
2021/08/10 04:06:17;;;;;;;28.55;14.38;;;13.70;99.90;;;;;;5092334;28;20024;-78
2021/08/10 04:08:43;;;;;;;26.27;15.43;;;13.70;99.90;;;;;;5093009;28;20024;-78
2021/08/10 04:11:09;;;;;;;34.20;17.95;;;13.70;99.90;;;;;;5091437;28;20118;-79
2021/08/10 04:13:35;;;;;;;45.10;19.38;;;13.70;99.90;;;;;;5091352;28;20103;-79
2021/08/10 04:16:08;;;;;;;31.48;19.27;;;13.80;99.90;;;;;;5092247;28;20031;-78
2021/08/10 04:18:36;;;;;;;36.60;20.17;;;13.90;99.90;;;;;;5072246;28;20033;-79
2021/08/10 04:21:01;;;;;;;39.42;19.75;;;14.10;99.90;;;;;;5071017;28;20055;-79
2021/08/10 04:23:27;;;;;;;41.72;21.77;;;14.10;99.90;;;;;;5070918;28;20060;-78
2021/08/10 04:25:52;;;;;;;46.85;23.02;;;14.10;99.90;;;;;;5071880;28;20020;-78
2021/08/10 04:28:18;;;;;;;33.28;19.30;;;14.10;99.90;;;;;;5086393;28;20032;-79
2021/08/10 04:30:45;;;;;;;39.83;22.35;;;14.10;99.90;;;;;;5092273;28;20028;-78
2021/08/10 04:33:11;;;;;;;50.67;21.60;;;14.10;99.90;;;;;;5091023;28;20048;-78
2021/08/10 04:35:37;;;;;;;31.30;19.67;;;14.20;99.90;;;;;;5091884;28;20496;-79
2021/08/10 04:38:03;;;;;;;35.58;18.73;;;14.10;99.90;;;;;;5090629;28;20527;-78
2021/08/10 04:40:29;;;;;;;40.58;21.38;;;14.10;99.90;;;;;;5092144;28;20051;-79
2021/08/10 04:42:55;;;;;;;30.77;17.17;;;14.10;99.90;;;;;;5090856;28;20016;-79
2021/08/10 04:45:22;;;;;;;33.75;18.05;;;14.10;99.90;;;;;;5090476;28;20024;-79
2021/08/10 04:47:47;;;;;;;46.60;21.27;;;14.10;99.90;;;;;;5091825;28;20062;-79
2021/08/10 04:50:13;;;;;;;36.65;19.70;;;14.10;99.90;;;;;;5091993;28;20063;-79
2021/08/10 04:52:39;;;;;;;37.25;20.17;;;14.10;99.90;;;;;;5091990;28;20028;-78
2021/08/10 04:55:06;;;;;;;35.88;20.60;;;14.10;99.90;;;;;;5091667;28;20066;-79
2021/08/10 04:57:31;;;;;;;32.80;19.85;;;14.10;99.90;;;;;;5091641;28;20396;-79
2021/08/10 04:59:57;;;;;;;38.95;21.40;;;14.20;99.90;;;;;;5071772;28;20016;-79
2021/08/10 05:02:22;;;;;;;44.72;21.38;;;14.20;99.90;;;;;;5071742;28;20024;-79
2021/08/10 05:04:48;;;;;;;35.33;20.58;;;14.30;99.90;;;;;;5071416;28;20025;-78
2021/08/10 05:07:14;;;;;;;41.95;20.23;;;14.40;99.90;;;;;;5070393;28;20016;-78
2021/08/10 05:09:41;;;;;;;36.10;19.15;;;14.40;99.90;;;;;;5087498;28;20052;-79
2021/08/10 05:12:07;;;;;;;40.38;20.88;;;14.40;99.90;;;;;;5095676;28;20017;-79
2021/08/10 05:14:33;;;;;;;38.80;21.23;;;14.50;99.90;;;;;;5094104;28;20039;-79
2021/08/10 05:16:58;;;;;;;44.88;22.40;;;14.60;99.90;;;;;;5096007;28;20028;-78
2021/08/10 05:19:24;;;;;;;42.47;19.65;;;14.60;99.90;;;;;;5094604;28;20165;-79
2021/08/10 05:21:50;;;;;;;33.40;20.45;;;14.70;99.90;;;;;;5095869;28;20021;-79
2021/08/10 05:24:15;;;;;;;29.40;18.65;;;14.70;99.90;;;;;;5094900;28;20039;-79
2021/08/10 05:26:41;;;;;;;48.92;19.52;;;14.90;99.90;;;;;;5094459;28;20101;-78
2021/08/10 05:29:06;;;;;;;36.28;20.30;;;14.90;99.90;;;;;;5095694;28;20110;-79
2021/08/10 05:31:32;;;;;;;40.22;19.90;;;15.00;99.90;;;;;;5094621;28;20024;-79
2021/08/10 05:33:58;;;;;;;29.60;17.25;;;15.10;99.90;;;;;;5095071;28;20051;-79
2021/08/10 05:36:23;;;;;;;44.90;18.45;;;15.10;99.90;;;;;;5095487;28;20039;-79
2021/08/10 05:38:50;;;;;;;25.35;15.43;;;15.20;99.90;;;;;;5094231;28;20059;-79
2021/08/10 05:41:17;;;;;;;35.72;14.95;;;15.40;99.90;;;;;;5094153;28;20016;-79
2021/08/10 05:43:42;;;;;;;34.92;15.48;;;15.30;99.90;;;;;;5094991;28;20032;-79
2021/08/10 05:46:08;;;;;;;37.42;15.15;;;15.40;99.90;;;;;;5095384;28;20091;-79
2021/08/10 05:48:34;;;;;;;25.20;14.82;;;15.40;99.90;;;;;;5095666;28;20085;-78
2021/08/10 05:51:00;;;;;;;31.85;13.93;;;15.60;99.90;;;;;;5095375;28;20541;-79
2021/08/10 05:53:26;;;;;;;33.13;14.63;;;15.60;99.90;;;;;;5093717;28;20024;-78
2021/08/10 05:55:51;;;;;;;22.35;13.02;;;15.40;99.90;;;;;;5094967;28;20103;-79
2021/08/10 05:58:17;;;;;;;26.75;14.15;;;15.40;99.90;;;;;;5094041;28;20028;-79
2021/08/10 06:00:42;;;;;;;25.58;13.07;;;15.60;99.90;;;;;;5092727;28;20071;-78
2021/08/10 06:03:08;;;;;;;25.90;14.57;;;15.60;99.90;;;;;;5093429;28;20024;-79
2021/08/10 06:05:34;;;;;;;19.45;12.30;;;15.60;99.90;;;;;;5094154;28;20020;-79
2021/08/10 06:07:59;;;;;;;26.35;14.05;;;15.60;99.90;;;;;;5094900;28;20111;-79
2021/08/10 06:10:26;;;;;;;17.85;12.43;;;15.60;99.90;;;;;;5093373;28;20028;-78
2021/08/10 06:12:52;;;;;;;23.13;13.23;;;15.60;99.90;;;;;;5094780;28;20020;-78
2021/08/10 06:15:17;;;;;;;35.53;12.88;;;15.70;99.90;;;;;;5093786;28;20027;-79
2021/08/10 06:17:43;;;;;;;23.77;11.95;;;15.70;99.90;;;;;;5094597;28;20090;-78
2021/08/10 06:20:10;;;;;;;24.23;12.48;;;15.70;99.90;;;;;;5093358;28;20016;-79
2021/08/10 06:22:35;;;;;;;21.05;12.18;;;15.80;99.90;;;;;;5087780;28;20027;-78
2021/08/10 06:25:01;;;;;;;24.48;13.50;;;15.80;99.90;;;;;;5085147;28;20020;-79
2021/08/10 06:27:26;;;;;;;28.38;13.43;;;15.80;99.90;;;;;;5088760;28;20024;-80
2021/08/10 06:29:52;;;;;;;19.38;11.55;;;15.90;99.90;;;;;;5089242;28;20488;-79
2021/08/10 06:32:19;;;;;;;31.02;12.30;;;16.00;99.90;;;;;;5090562;28;20165;-79
2021/08/10 06:34:44;;;;;;;23.52;13.15;;;16.10;99.90;;;;;;5088051;28;20103;-79
2021/08/10 06:37:10;;;;;;;26.77;13.02;;;16.10;99.90;;;;;;5088479;28;20032;-79
2021/08/10 06:39:35;;;;;;;19.80;12.85;;;15.90;99.90;;;;;;5094134;28;20492;-78
2021/08/10 06:42:01;;;;;;;23.63;12.25;;;16.00;99.90;;;;;;5094326;28;20179;-79
2021/08/10 06:44:26;;;;;;;22.52;12.57;;;16.10;99.90;;;;;;5093930;28;20472;-79
2021/08/10 06:46:52;;;;;;;32.47;13.70;;;16.20;99.90;;;;;;5093900;28;20408;-80
2021/08/10 06:49:17;;;;;;;21.88;12.25;;;16.20;99.90;;;;;;5092802;28;20119;-78
2021/08/10 06:51:43;;;;;;;18.52;11.48;;;16.30;99.90;;;;;;5094011;28;20028;-79
2021/08/10 06:54:09;;;;;;;24.35;13.07;;;16.50;99.90;;;;;;5093774;28;20024;-79
2021/08/10 06:56:34;;;;;;;36.30;12.85;;;16.60;99.90;;;;;;5093580;28;20056;-81
2021/08/10 06:59:00;;;;;;;32.08;13.02;;;16.80;99.90;;;;;;5092138;28;20028;-82
2021/08/10 07:01:25;;;;;;;19.40;10.85;;;17.00;99.90;;;;;;5092327;28;20012;-81
2021/08/10 07:03:53;;;;;;;14.55;9.98;;;17.20;99.90;;;;;;5093314;28;20032;-80
2021/08/10 07:06:19;;;;;;;17.33;9.90;;;17.30;99.90;;;;;;5093693;28;20023;-81
2021/08/10 07:08:44;;;;;;;23.40;9.43;;;17.40;99.90;;;;;;5092443;28;20020;-80
2021/08/10 07:11:10;;;;;;;16.17;9.32;;;17.40;99.90;;;;;;5086424;28;20055;-82
2021/08/10 07:13:36;;;;;;;21.48;9.88;;;17.40;99.90;;;;;;5088033;28;20028;-81
2021/08/10 07:16:01;;;;;;;21.75;9.13;;;17.30;99.90;;;;;;5087834;28;20039;-82
2021/08/10 07:18:27;;;;;;;24.65;8.60;;;17.40;99.90;;;;;;5089321;28;20047;-82
2021/08/10 07:20:52;;;;;;;22.23;10.35;;;17.60;99.90;;;;;;5086720;28;20043;-81
2021/08/10 07:23:18;;;;;;;21.55;8.68;;;17.80;99.90;;;;;;5088386;28;20043;-81
2021/08/10 07:25:43;;;;;;;17.50;8.05;;;17.90;99.90;;;;;;5080775;28;20043;-82
2021/08/10 07:28:09;;;;;;;26.33;9.48;;;18.10;99.90;;;;;;5087738;28;20059;-80
2021/08/10 07:30:35;;;;;;;20.60;7.85;;;18.00;99.90;;;;;;5088464;28;20032;-81
2021/08/10 07:33:00;;;;;;;10.38;3.67;;;17.80;99.90;;;;;;5087919;28;20061;-80
2021/08/10 07:35:26;;;;;;;13.30;2.55;;;17.20;99.90;;;;;;5088651;28;20484;-79
2021/08/10 07:37:51;;;;;;;12.02;3.30;;;16.70;99.90;;;;;;5093194;28;20027;-79
2021/08/10 07:40:17;;;;;;;16.60;4.05;;;16.00;99.90;;;;;;5091485;28;20392;-78
2021/08/10 07:42:42;;;;;;;10.10;3.20;;;15.50;99.90;;;;;;5091816;28;20020;-80
2021/08/10 07:45:09;;;;;;;7.38;3.42;;;15.20;99.90;;;;;;5092902;28;20075;-79
2021/08/10 07:47:34;;;;;;;9.70;3.35;;;15.10;99.90;;;;;;5091736;28;20027;-79
2021/08/10 07:50:01;;;;;;;10.05;3.25;;;15.00;99.90;;;;;;5091687;28;20024;-80
2021/08/10 07:52:26;;;;;;;11.43;3.55;;;15.00;99.90;;;;;;5091261;28;20057;-80
2021/08/10 07:54:52;;;;;;;8.65;2.92;;;14.90;99.90;;;;;;5092549;28;20106;-80
2021/08/10 07:57:18;;;;;;;5.55;2.78;;;14.90;99.90;;;;;;5092791;28;20058;-80
2021/08/10 07:59:43;;;;;;;14.45;3.63;;;14.90;99.90;;;;;;5092781;28;20054;-80
2021/08/10 08:02:09;;;;;;;9.77;3.63;;;15.00;99.90;;;;;;5092529;28;20126;-80
2021/08/10 08:04:35;;;;;;;8.27;3.60;;;14.80;99.90;;;;;;5091136;28;20016;-80
2021/08/10 08:07:01;;;;;;;10.45;3.42;;;14.90;99.90;;;;;;5090794;28;20050;-80
2021/08/10 08:09:28;;;;;;;9.27;3.90;;;15.00;99.90;;;;;;5091272;28;20024;-80
2021/08/10 08:11:53;;;;;;;7.45;3.20;;;14.90;99.90;;;;;;5091106;28;20479;-80
2021/08/10 08:14:20;;;;;;;11.27;3.60;;;14.90;99.90;;;;;;5092293;28;20039;-80
2021/08/10 08:16:47;;;;;;;10.85;2.88;;;15.10;99.90;;;;;;5091291;28;20020;-81
2021/08/10 08:19:13;;;;;;;13.10;3.25;;;15.00;99.90;;;;;;5090221;28;20028;-80
2021/08/10 08:21:38;;;;;;;14.77;4.28;;;14.90;99.90;;;;;;5092449;28;20062;-81
2021/08/10 08:24:05;;;;;;;15.27;3.65;;;14.70;99.90;;;;;;5090790;28;20499;-80
2021/08/10 08:26:31;;;;;;;12.25;3.75;;;14.70;99.90;;;;;;5092270;28;20024;-80
2021/08/10 08:28:56;;;;;;;18.05;4.03;;;14.80;99.90;;;;;;5090774;28;20411;-80
2021/08/10 08:31:22;;;;;;;17.98;4.68;;;14.70;99.90;;;;;;5091012;28;20115;-80
2021/08/10 08:33:48;;;;;;;21.27;3.60;;;14.60;99.90;;;;;;5080989;28;20035;-79
2021/08/10 08:36:13;;;;;;;8.20;3.17;;;14.60;99.90;;;;;;5085621;28;20032;-80
2021/08/10 08:38:40;;;;;;;20.02;3.95;;;14.60;99.90;;;;;;5087188;28;20040;-79
2021/08/10 08:41:06;;;;;;;14.77;3.80;;;14.80;99.90;;;;;;5086515;28;20020;-78
2021/08/10 08:43:32;;;;;;;10.88;3.97;;;14.80;99.90;;;;;;5087762;28;20020;-80
2021/08/10 08:45:58;;;;;;;7.68;2.90;;;14.90;99.90;;;;;;5085577;28;20020;-79
2021/08/10 08:48:26;;;;;;;11.30;3.40;;;15.10;99.90;;;;;;5087137;28;20039;-81
2021/08/10 08:50:52;;;;;;;12.18;4.05;;;14.90;99.90;;;;;;5086387;28;20025;-80
2021/08/10 08:53:19;;;;;;;15.30;3.35;;;15.00;99.90;;;;;;5087378;28;20031;-80
2021/08/10 08:55:46;;;;;;;9.18;3.10;;;15.00;99.90;;;;;;5088008;28;20028;-80
2021/08/10 08:58:13;;;;;;;8.43;3.67;;;15.00;99.90;;;;;;5084980;28;20023;-80
2021/08/10 09:00:39;;;;;;;15.35;3.40;;;15.20;99.90;;;;;;5084031;28;20031;-80
2021/08/10 09:03:05;;;;;;;14.10;3.97;;;15.20;99.90;;;;;;5085159;28;20110;-81
2021/08/10 09:05:33;;;;;;;9.38;3.17;;;15.50;99.90;;;;;;5088086;28;20086;-81
2021/08/10 09:08:27;;;;;;;10.30;2.90;;;15.40;99.90;;;;;;5086202;28;20078;-80
2021/08/10 09:10:55;;;;;;;8.10;3.85;;;15.60;99.90;;;;;;5086837;28;20028;-79
2021/08/10 09:13:20;;;;;;;9.93;3.75;;;15.80;99.90;;;;;;5088619;28;20035;-79
2021/08/10 09:15:46;;;;;;;6.10;2.53;;;16.00;99.90;;;;;;5086685;28;20028;-79
2021/08/10 09:18:15;;;;;;;11.13;3.50;;;16.10;99.90;;;;;;5088090;28;20028;-80
2021/08/10 09:21:17;;;;;;;10.57;2.70;;;16.30;99.90;;;;;;5088119;28;20028;-80
2021/08/10 09:23:46;;;;;;;12.55;3.63;;;16.80;99.90;;;;;;5087768;28;20055;-81
2021/08/10 09:26:14;;;;;;;13.45;2.72;;;16.90;99.90;;;;;;5086769;28;20028;-81
2021/08/10 09:28:40;;;;;;;7.00;2.97;;;16.90;99.90;;;;;;5083844;28;20036;-79
2021/08/10 09:31:33;;;;;;;3.47;2.22;;;16.70;99.90;;;;;;5087775;28;20106;-80
2021/08/10 09:34:08;;;;;;;11.20;3.95;;;16.80;99.90;;;;;;5088084;28;20028;-80
2021/08/10 09:36:35;;;;;;;6.28;3.08;;;17.00;99.90;;;;;;5086945;28;20044;-81
2021/08/10 09:39:02;;;;;;;8.20;3.17;;;16.90;99.90;;;;;;5086826;28;20032;-82
2021/08/10 09:41:29;;;;;;;10.35;3.25;;;17.40;99.90;;;;;;5087699;28;20035;-83
2021/08/10 09:44:17;;;;;;;8.77;3.58;;;17.50;99.90;;;;;;5084505;28;20025;-82
2021/08/10 09:46:48;;;;;;;5.80;2.78;;;17.20;99.90;;;;;;5088028;28;20073;-80
2021/08/10 09:49:17;;;;;;;3.88;2.55;;;16.80;99.90;;;;;;5090080;28;20027;-81
2021/08/10 09:51:46;;;;;;;5.93;2.97;;;16.60;99.90;;;;;;5089710;28;20071;-81
2021/08/10 09:54:12;;;;;;;8.50;3.08;;;16.90;99.90;;;;;;5091163;28;20032;-80
2021/08/10 09:57:03;;;;;;;13.85;3.88;;;17.00;99.90;;;;;;5093642;28;20545;-81
2021/08/10 09:59:45;;;;;;;10.20;3.50;;;17.50;99.90;;;;;;5093872;28;20031;-80
2021/08/10 10:02:22;;;;;;;4.00;2.42;;;17.90;99.90;;;;;;5094745;28;20031;-79
2021/08/10 10:04:52;;;;;;;3.75;2.80;;;18.40;99.90;;;;;;5094327;28;20069;-80
2021/08/10 10:07:18;;;;;;;9.55;4.13;;;18.90;99.90;;;;;;5074749;28;20055;-80
2021/08/10 10:09:45;;;;;;;5.90;3.13;;;19.20;99.90;;;;;;5074544;28;20504;-80
2021/08/10 10:12:10;;;;;;;10.13;2.50;;;19.40;99.90;;;;;;5086374;28;20040;-82
2021/08/10 10:14:38;;;;;;;3.85;2.35;;;19.80;99.90;;;;;;5093354;28;20031;-81
2021/08/10 10:17:05;;;;;;;4.20;2.17;;;19.90;99.90;;;;;;5093562;28;20035;-82
2021/08/10 10:19:35;;;;;;;4.30;2.08;;;19.90;99.90;;;;;;5093389;28;20062;-82
2021/08/10 10:22:03;;;;;;;4.13;2.10;;;20.00;99.90;;;;;;5093200;28;20032;-81
2021/08/10 10:24:35;;;;;;;3.50;2.08;;;20.00;99.90;;;;;;5092627;28;20047;-80
2021/08/10 10:27:03;;;;;;;4.43;1.70;;;19.60;99.90;;;;;;5094370;28;20024;-81
2021/08/10 10:29:30;;;;;;;4.65;1.90;;;19.70;99.90;;;;;;5093492;28;20061;-82
2021/08/10 10:31:56;;;;;;;5.72;2.00;;;20.10;99.90;;;;;;5094228;28;20090;-83
2021/08/10 10:34:23;;;;;;;3.65;2.10;;;19.90;99.90;;;;;;5094165;28;20099;-85
2021/08/10 10:36:50;;;;;;;4.07;1.80;;;20.10;99.90;;;;;;5094187;28;20411;-84
2021/08/10 10:39:28;;;;;;;6.72;2.17;;;20.30;99.90;;;;;;5092742;28;20028;-82
2021/08/10 10:41:57;;;;;;;6.30;2.35;;;20.20;99.90;;;;;;5094220;28;20055;-84
2021/08/10 10:44:43;;;;;;;6.97;2.70;;;19.80;99.90;;;;;;5072635;28;20116;-84
2021/08/10 10:47:24;;;;;;;6.93;2.65;;;19.50;99.90;;;;;;5089523;28;20107;-85
2021/08/10 10:49:56;;;;;;;8.00;3.10;;;19.00;99.90;;;;;;5089563;28;20036;-85
2021/08/10 10:52:32;;;;;;;7.15;2.60;;;19.00;99.90;;;;;;5090906;28;20120;-84
2021/08/10 10:54:59;;;;;;;7.57;2.88;;;19.20;99.90;;;;;;5092680;28;20111;-84
2021/08/10 10:57:33;;;;;;;4.78;2.33;;;19.50;99.90;;;;;;5092544;28;20030;-83
2021/08/10 10:59:58;;;;;;;18.70;2.83;;;19.90;99.90;;;;;;5092800;28;20495;-84
2021/08/10 11:02:26;;;;;;;9.18;2.50;;;20.00;99.90;;;;;;5092607;28;20023;-86
2021/08/10 11:05:12;;;;;;;15.40;3.17;;;19.70;99.90;;;;;;5092520;28;20098;-84
2021/08/10 11:07:46;;;;;;;9.82;2.92;;;19.70;99.90;;;;;;5092999;28;20422;-88
2021/08/10 11:10:34;;;;;;;11.73;3.40;;;19.80;99.90;;;;;;5092734;28;20399;-87
2021/08/10 11:12:59;;;;;;;5.97;2.70;;;19.60;99.90;;;;;;5092678;28;20081;-85
2021/08/10 11:15:46;;;;;;;5.38;2.75;;;19.70;99.90;;;;;;5092366;28;20052;-85
2021/08/10 11:18:12;;;;;;;11.07;2.90;;;19.80;99.90;;;;;;5092376;28;20106;-84
2021/08/10 11:20:47;;;;;;;9.98;3.22;;;20.40;99.90;;;;;;5092649;28;20428;-84
2021/08/10 11:23:23;;;;;;;9.70;2.35;;;21.30;99.90;;;;;;5093682;28;20020;-87
2021/08/10 11:25:52;;;;;;;8.68;2.88;;;21.60;99.90;;;;;;5083234;28;20025;-87
2021/08/10 11:28:26;;;;;;;9.18;3.08;;;21.50;99.90;;;;;;5076687;28;20024;-88
2021/08/10 11:30:54;;;;;;;8.55;2.63;;;21.90;99.90;;;;;;5086472;28;20093;-85
2021/08/10 11:33:32;;;;;;;9.70;3.35;;;21.80;99.90;;;;;;5080471;28;20033;-88
2021/08/10 11:36:10;;;;;;;7.78;2.45;;;21.60;99.90;;;;;;5096366;28;20028;-85
2021/08/10 11:38:44;;;;;;;7.57;3.00;;;21.10;99.90;;;;;;5094164;28;20477;-88
2021/08/10 11:41:31;;;;;;;7.68;3.28;;;21.30;99.90;;;;;;5092679;28;20021;-85
2021/08/10 11:43:58;;;;;;;11.20;3.28;;;20.70;99.90;;;;;;5092539;28;20059;-88
2021/08/10 11:46:26;;;;;;;14.20;3.30;;;20.30;99.90;;;;;;5092211;28;20074;-90
2021/08/10 11:48:57;;;;;;;9.40;2.55;;;20.10;99.90;;;;;;5092171;28;20024;-88
2021/08/10 11:51:23;;;;;;;7.90;3.10;;;20.30;99.90;;;;;;5092171;28;20031;-86
2021/08/10 11:53:51;;;;;;;11.40;2.17;;;20.80;99.90;;;;;;5092874;28;20032;-85
2021/08/10 11:56:37;;;;;;;8.32;3.00;;;20.80;99.90;;;;;;5091564;28;20056;-84
2021/08/10 11:59:05;;;;;;;6.35;2.42;;;21.10;99.90;;;;;;5071384;28;20050;-83
2021/08/10 12:01:36;;;;;;;5.88;2.00;;;21.70;99.90;;;;;;5072616;28;20017;-85
2021/08/10 12:04:18;;;;;;;5.97;2.20;;;21.60;99.90;;;;;;5072270;28;20066;-84
2021/08/10 12:06:47;;;;;;;6.43;2.05;;;21.80;99.90;;;;;;5071428;28;20029;-83
2021/08/10 12:09:38;;;;;;;7.03;1.58;;;21.50;99.90;;;;;;5072474;28;20029;-84
2021/08/10 12:12:06;;;;;;;5.28;1.70;;;21.90;99.90;;;;;;5072311;28;20023;-83
2021/08/10 12:14:33;;;;;;;3.50;1.55;;;22.40;99.90;;;;;;5071125;28;20048;-84
2021/08/10 12:17:09;;;;;;;3.67;1.75;;;22.80;99.90;;;;;;5086151;28;20521;-85
2021/08/10 12:19:43;;;;;;;3.40;1.90;;;22.40;99.90;;;;;;5091399;28;20058;-84
2021/08/10 12:22:15;;;;;;;3.35;1.52;;;22.40;99.90;;;;;;5091155;28;20027;-85
2021/08/10 12:24:41;;;;;;;3.53;1.38;;;22.60;99.90;;;;;;5091014;28;20031;-84
2021/08/10 12:27:08;;;;;;;3.90;1.45;;;22.50;99.90;;;;;;5091284;28;20024;-84
2021/08/10 12:29:49;;;;;;;8.07;2.38;;;22.70;99.90;;;;;;5092489;28;20034;-83
2021/08/10 12:32:28;;;;;;;5.07;2.03;;;22.30;99.90;;;;;;5092381;28;20085;-82
2021/08/10 12:34:55;;;;;;;4.72;2.00;;;22.00;99.90;;;;;;5091834;28;20028;-83
2021/08/10 12:37:33;;;;;;;7.22;1.70;;;22.30;99.90;;;;;;5090939;28;20036;-84
2021/08/10 12:39:59;;;;;;;5.25;2.17;;;23.10;99.90;;;;;;5091158;28;20372;-83
2021/08/10 12:42:25;;;;;;;9.85;1.92;;;23.10;99.90;;;;;;5091171;28;20457;-82